createdAt,value
2018-07-10T00:00:06.289Z,17.54
2018-07-10T00:01:06.285Z,17.45
2018-07-10T00:02:06.281Z,17.46
2018-07-10T00:03:06.276Z,17.52
2018-07-10T00:04:06.271Z,17.51
2018-07-10T00:05:06.267Z,17.42
2018-07-10T00:06:06.263Z,17.49
2018-07-10T00:07:06.262Z,17.39
2018-07-10T00:08:06.315Z,17.36
2018-07-10T00:09:06.248Z,17.30
2018-07-10T00:10:06.244Z,17.31
2018-07-10T00:11:06.239Z,17.33
2018-07-10T00:12:06.237Z,17.33
2018-07-10T00:13:06.230Z,17.30
2018-07-10T00:14:06.226Z,17.26
2018-07-10T00:15:06.222Z,17.27
2018-07-10T00:16:06.216Z,17.20
2018-07-10T00:17:06.214Z,17.19
2018-07-10T00:18:06.207Z,17.12
2018-07-10T00:19:06.202Z,17.12
2018-07-10T00:20:06.197Z,17.02
2018-07-10T00:21:06.193Z,17.02
2018-07-10T00:22:06.188Z,16.97
2018-07-10T00:23:06.183Z,16.94
2018-07-10T00:24:06.178Z,16.91
2018-07-10T00:25:06.179Z,16.86
2018-07-10T00:26:06.168Z,16.86
2018-07-10T00:27:06.164Z,16.86
2018-07-10T00:28:06.158Z,16.90
2018-07-10T00:29:06.154Z,16.91
2018-07-10T00:30:06.149Z,16.81
2018-07-10T00:31:06.144Z,16.83
2018-07-10T00:32:06.138Z,16.81
2018-07-10T00:33:06.134Z,16.75
2018-07-10T00:34:06.129Z,16.78
2018-07-10T00:35:06.124Z,16.87
2018-07-10T00:36:06.118Z,16.89
2018-07-10T00:37:06.125Z,16.84
2018-07-10T00:38:06.109Z,16.75
2018-07-10T00:39:06.104Z,16.75
2018-07-10T00:40:06.098Z,16.78
2018-07-10T00:41:06.093Z,16.78
2018-07-10T00:42:06.092Z,16.65
2018-07-10T00:43:06.083Z,16.72
2018-07-10T00:45:06.073Z,16.76
2018-07-10T00:46:06.068Z,16.71
2018-07-10T00:47:06.064Z,16.68
2018-07-10T00:48:06.057Z,16.61
2018-07-10T00:49:06.052Z,16.66
2018-07-10T00:50:06.050Z,16.66
2018-07-10T00:51:06.043Z,16.66
2018-07-10T00:52:06.038Z,16.61
2018-07-10T00:53:06.036Z,16.64
2018-07-10T00:54:06.028Z,16.64
2018-07-10T00:55:06.023Z,16.64
2018-07-10T00:56:06.017Z,16.61
2018-07-10T00:57:06.012Z,16.71
2018-07-10T00:58:06.007Z,16.58
2018-07-10T00:59:06.002Z,16.61
2018-07-10T01:00:05.996Z,16.56
2018-07-10T01:01:05.992Z,16.50
2018-07-10T01:02:05.987Z,16.43
2018-07-10T01:03:05.983Z,16.46
2018-07-10T01:04:05.975Z,16.36
2018-07-10T01:05:05.971Z,16.50
2018-07-10T01:06:05.965Z,16.49
2018-07-10T01:07:05.962Z,16.47
2018-07-10T01:08:05.957Z,16.39
2018-07-10T01:09:05.949Z,16.43
2018-07-10T01:10:05.945Z,16.35
2018-07-10T01:11:05.939Z,16.29
2018-07-10T01:12:05.934Z,16.32
2018-07-10T01:13:05.929Z,16.23
2018-07-10T01:14:05.923Z,16.24
2018-07-10T01:15:05.919Z,16.26
2018-07-10T01:16:05.913Z,16.28
2018-07-10T01:17:05.907Z,16.32
2018-07-10T01:18:05.903Z,16.26
2018-07-10T01:19:05.899Z,16.24
2018-07-10T01:20:05.892Z,16.32
2018-07-10T01:21:05.887Z,16.21
2018-07-10T01:22:05.882Z,16.26
2018-07-10T01:23:05.879Z,16.29
2018-07-10T01:24:05.871Z,16.35
2018-07-10T01:25:05.865Z,16.35
2018-07-10T01:26:05.860Z,16.36
2018-07-10T01:27:05.856Z,16.41
2018-07-10T01:28:05.850Z,16.31
2018-07-10T01:29:05.845Z,16.41
2018-07-10T01:30:05.842Z,16.35
2018-07-10T01:31:05.835Z,16.33
2018-07-10T01:32:05.830Z,16.29
2018-07-10T01:33:05.827Z,16.23
2018-07-10T01:34:05.820Z,16.23
2018-07-10T01:35:05.815Z,16.26
2018-07-10T01:36:05.809Z,16.29
2018-07-10T01:37:05.804Z,16.26
2018-07-10T01:38:05.799Z,16.24
2018-07-10T01:39:05.795Z,16.24
2018-07-10T01:40:05.789Z,16.24
2018-07-10T01:41:05.783Z,16.20
2018-07-10T01:42:05.779Z,16.10
2018-07-10T01:43:05.777Z,16.10
2018-07-10T01:44:05.769Z,16.10
2018-07-10T01:45:05.763Z,16.15
2018-07-10T01:46:05.757Z,16.05
2018-07-10T01:47:05.753Z,16.09
2018-07-10T01:48:05.747Z,16.26
2018-07-10T01:49:05.743Z,16.29
2018-07-10T01:50:05.737Z,16.28
2018-07-10T01:51:05.734Z,16.16
2018-07-10T01:52:05.727Z,16.28
2018-07-10T01:53:05.721Z,16.28
2018-07-10T01:54:05.718Z,16.16
2018-07-10T01:55:05.711Z,16.09
2018-07-10T01:56:05.705Z,16.13
2018-07-10T01:57:05.700Z,16.10
2018-07-10T01:58:05.695Z,16.15
2018-07-10T01:59:05.690Z,16.05
2018-07-10T02:00:05.685Z,16.05
2018-07-10T02:01:05.680Z,16.10
2018-07-10T02:02:05.673Z,16.05
2018-07-10T02:03:05.668Z,16.05
2018-07-10T02:04:05.663Z,15.98
2018-07-10T02:05:05.657Z,16.08
2018-07-10T02:06:05.651Z,16.10
2018-07-10T02:07:05.647Z,16.09
2018-07-10T02:08:05.642Z,16.08
2018-07-10T02:09:05.636Z,16.09
2018-07-10T02:10:05.633Z,16.15
2018-07-10T02:11:05.625Z,16.09
2018-07-10T02:12:05.619Z,16.15
2018-07-10T02:13:05.614Z,16.10
2018-07-10T02:14:05.694Z,16.04
2018-07-10T02:15:05.603Z,16.13
2018-07-10T02:16:05.601Z,16.10
2018-07-10T02:17:05.592Z,16.08
2018-07-10T02:18:05.588Z,15.98
2018-07-10T02:19:05.582Z,15.97
2018-07-10T02:20:05.576Z,15.97
2018-07-10T02:21:05.571Z,16.05
2018-07-10T02:22:05.566Z,16.08
2018-07-10T02:23:05.560Z,16.01
2018-07-10T02:24:05.554Z,16.01
2018-07-10T02:25:05.549Z,16.02
2018-07-10T02:26:05.544Z,15.98
2018-07-10T02:27:05.538Z,16.00
2018-07-10T02:28:05.533Z,15.97
2018-07-10T02:29:05.526Z,15.92
2018-07-10T02:30:05.522Z,15.84
2018-07-10T02:31:05.518Z,15.80
2018-07-10T02:32:05.511Z,15.79
2018-07-10T02:33:05.508Z,15.86
2018-07-10T02:34:05.500Z,15.77
2018-07-10T02:35:05.496Z,15.72
2018-07-10T02:36:05.488Z,15.67
2018-07-10T02:37:05.483Z,15.64
2018-07-10T02:38:05.478Z,15.58
2018-07-10T02:39:05.478Z,15.67
2018-07-10T02:40:05.466Z,15.64
2018-07-10T02:41:05.461Z,15.58
2018-07-10T02:42:05.456Z,15.62
2018-07-10T02:43:05.453Z,15.70
2018-07-10T02:44:05.444Z,15.65
2018-07-10T02:45:05.439Z,15.61
2018-07-10T02:46:05.438Z,15.68
2018-07-10T02:47:05.428Z,15.68
2018-07-10T02:48:05.422Z,15.62
2018-07-10T02:49:05.416Z,15.61
2018-07-10T02:50:05.411Z,15.65
2018-07-10T02:51:05.406Z,15.67
2018-07-10T02:52:05.402Z,15.64
2018-07-10T02:53:05.393Z,15.70
2018-07-10T02:54:05.388Z,15.67
2018-07-10T02:55:05.383Z,15.65
2018-07-10T02:56:05.646Z,15.64
2018-07-10T02:57:05.371Z,15.62
2018-07-10T02:58:05.369Z,15.65
2018-07-10T02:59:05.361Z,15.70
2018-07-10T03:00:05.357Z,15.67
2018-07-10T03:01:05.354Z,15.62
2018-07-10T03:02:05.343Z,15.65
2018-07-10T03:03:05.338Z,15.62
2018-07-10T03:04:05.331Z,15.64
2018-07-10T03:05:05.326Z,15.61
2018-07-10T03:06:05.320Z,15.64
2018-07-10T03:07:05.319Z,15.64
2018-07-10T03:08:05.309Z,15.70
2018-07-10T03:09:05.303Z,15.70
2018-07-10T03:10:05.306Z,15.68
2018-07-10T03:11:05.295Z,15.70
2018-07-10T03:12:05.290Z,15.64
2018-07-10T03:13:05.281Z,15.62
2018-07-10T03:14:05.284Z,15.64
2018-07-10T03:15:05.277Z,15.62
2018-07-10T03:16:05.295Z,15.64
2018-07-10T03:17:05.259Z,15.59
2018-07-10T03:18:05.253Z,15.58
2018-07-10T03:19:05.248Z,15.62
2018-07-10T03:20:05.241Z,15.54
2018-07-10T03:21:05.236Z,15.59
2018-07-10T03:22:05.234Z,15.61
2018-07-10T03:23:05.227Z,15.58
2018-07-10T03:24:05.218Z,15.59
2018-07-10T03:25:05.213Z,15.58
2018-07-10T03:26:05.211Z,15.55
2018-07-10T03:27:05.202Z,15.54
2018-07-10T03:28:05.201Z,15.54
2018-07-10T03:29:05.392Z,15.58
2018-07-10T03:30:05.188Z,15.62
2018-07-10T03:31:05.179Z,15.59
2018-07-10T03:32:05.376Z,15.61
2018-07-10T03:33:05.168Z,15.58
2018-07-10T03:34:05.162Z,15.54
2018-07-10T03:35:05.156Z,15.57
2018-07-10T03:36:05.150Z,15.58
2018-07-10T03:37:05.148Z,15.55
2018-07-10T03:38:05.143Z,15.64
2018-07-10T03:39:05.138Z,15.67
2018-07-10T03:40:05.130Z,15.61
2018-07-10T03:41:05.121Z,15.58
2018-07-10T03:42:05.117Z,15.61
2018-07-10T03:43:05.111Z,15.58
2018-07-10T03:44:05.105Z,15.52
2018-07-10T03:45:05.100Z,15.55
2018-07-10T03:46:05.097Z,15.52
2018-07-10T03:47:05.089Z,15.52
2018-07-10T03:48:05.089Z,15.54
2018-07-10T03:49:05.076Z,15.52
2018-07-10T03:50:05.071Z,15.47
2018-07-10T03:51:05.068Z,15.52
2018-07-10T03:52:05.059Z,15.47
2018-07-10T03:53:05.063Z,15.42
2018-07-10T03:54:05.055Z,15.43
2018-07-10T03:55:05.045Z,15.39
2018-07-10T03:56:05.036Z,15.35
2018-07-10T03:57:05.030Z,15.46
2018-07-10T03:58:05.025Z,15.43
2018-07-10T03:59:05.023Z,15.33
2018-07-10T04:00:05.012Z,15.42
2018-07-10T04:01:05.006Z,15.40
2018-07-10T04:02:05.000Z,15.37
2018-07-10T04:03:04.998Z,15.37
2018-07-10T04:04:04.988Z,15.36
2018-07-10T04:05:04.983Z,15.42
2018-07-10T04:06:05.206Z,15.46
2018-07-10T04:07:04.979Z,15.40
2018-07-10T04:08:04.965Z,15.39
2018-07-10T04:09:05.030Z,15.44
2018-07-10T04:10:04.958Z,15.43
2018-07-10T04:11:04.954Z,15.47
2018-07-10T04:12:04.942Z,15.39
2018-07-10T04:13:04.940Z,15.40
2018-07-10T04:14:04.931Z,15.37
2018-07-10T04:15:04.937Z,15.43
2018-07-10T04:16:04.925Z,15.42
2018-07-10T04:17:04.922Z,15.44
2018-07-10T04:18:04.909Z,15.44
2018-07-10T04:19:04.903Z,15.40
2018-07-10T04:20:04.896Z,15.40
2018-07-10T04:21:04.891Z,15.42
2018-07-10T04:22:04.888Z,15.47
2018-07-10T04:23:04.885Z,15.57
2018-07-10T04:24:04.878Z,15.61
2018-07-10T04:25:04.869Z,15.51
2018-07-10T04:26:04.865Z,15.57
2018-07-10T04:27:04.857Z,15.62
2018-07-10T04:28:04.859Z,15.54
2018-07-10T04:29:04.847Z,15.59
2018-07-10T04:30:04.848Z,15.62
2018-07-10T04:31:04.839Z,15.57
2018-07-10T04:32:04.833Z,15.55
2018-07-10T04:33:04.824Z,15.57
2018-07-10T04:34:04.818Z,15.57
2018-07-10T04:35:04.813Z,15.67
2018-07-10T04:36:04.806Z,15.47
2018-07-10T04:37:04.804Z,15.47
2018-07-10T04:38:04.798Z,15.58
2018-07-10T04:39:04.790Z,15.57
2018-07-10T04:40:04.784Z,15.54
2018-07-10T04:41:04.782Z,15.57
2018-07-10T04:42:04.773Z,15.54
2018-07-10T04:43:04.773Z,15.59
2018-07-10T04:44:04.766Z,15.65
2018-07-10T04:45:04.756Z,15.58
2018-07-10T04:46:04.956Z,15.67
2018-07-10T04:47:04.748Z,15.70
2018-07-10T04:48:04.749Z,15.52
2018-07-10T04:49:04.771Z,15.64
2018-07-10T04:50:04.729Z,15.57
2018-07-10T04:51:04.730Z,15.61
2018-07-10T04:52:04.718Z,15.61
2018-07-10T04:53:04.713Z,15.58
2018-07-10T04:54:04.708Z,15.61
2018-07-10T04:55:04.705Z,15.64
2018-07-10T04:56:04.697Z,15.65
2018-07-10T04:57:04.691Z,15.64
2018-07-10T04:58:04.695Z,15.64
2018-07-10T04:59:04.684Z,15.62
2018-07-10T05:00:04.674Z,15.59
2018-07-10T05:01:04.675Z,15.59
2018-07-10T05:02:04.671Z,15.58
2018-07-10T05:03:04.658Z,15.57
2018-07-10T05:04:04.652Z,15.67
2018-07-10T05:05:04.649Z,15.58
2018-07-10T05:06:04.859Z,15.61
2018-07-10T05:07:04.643Z,15.52
2018-07-10T05:08:04.631Z,15.61
2018-07-10T05:09:04.625Z,15.55
2018-07-10T05:10:04.620Z,15.57
2018-07-10T05:11:04.614Z,15.52
2018-07-10T05:12:04.692Z,15.55
2018-07-10T05:13:04.603Z,15.61
2018-07-10T05:14:04.599Z,15.59
2018-07-10T05:15:04.595Z,15.49
2018-07-10T05:16:04.587Z,15.55
2018-07-10T05:17:04.590Z,15.46
2018-07-10T05:18:04.576Z,15.46
2018-07-10T05:19:04.571Z,15.52
2018-07-10T05:20:04.565Z,15.55
2018-07-10T05:21:04.561Z,15.57
2018-07-10T05:23:04.590Z,15.59
2018-07-10T05:24:04.543Z,15.65
2018-07-10T05:25:04.538Z,15.58
2018-07-10T05:26:04.534Z,15.57
2018-07-10T05:27:04.527Z,15.59
2018-07-10T05:28:04.521Z,15.68
2018-07-10T05:29:04.623Z,15.65
2018-07-10T05:30:04.513Z,15.67
2018-07-10T05:31:04.506Z,15.76
2018-07-10T05:32:04.499Z,15.77
2018-07-10T05:33:04.504Z,15.77
2018-07-10T05:34:04.489Z,15.84
2018-07-10T05:35:04.490Z,15.86
2018-07-10T05:36:04.478Z,15.88
2018-07-10T05:37:04.490Z,15.92
2018-07-10T05:38:04.472Z,16.01
2018-07-10T05:39:04.470Z,15.98
2018-07-10T05:40:04.458Z,15.92
2018-07-10T05:41:04.457Z,15.86
2018-07-10T05:42:04.448Z,15.84
2018-07-10T05:43:04.448Z,15.84
2018-07-10T05:44:04.437Z,15.84
2018-07-10T05:45:04.432Z,15.90
2018-07-10T05:46:04.428Z,15.83
2018-07-10T05:47:04.423Z,15.84
2018-07-10T05:48:04.420Z,15.91
2018-07-10T05:49:04.415Z,15.90
2018-07-10T05:50:04.408Z,15.86
2018-07-10T05:51:04.405Z,15.84
2018-07-10T05:52:04.400Z,15.86
2018-07-10T05:53:04.396Z,15.88
2018-07-10T05:54:04.389Z,16.01
2018-07-10T05:55:04.382Z,16.05
2018-07-10T05:56:04.380Z,16.04
2018-07-10T05:57:04.372Z,15.97
2018-07-10T05:58:04.569Z,15.94
2018-07-10T05:59:04.371Z,15.86
2018-07-10T06:00:04.360Z,15.94
2018-07-10T06:01:04.369Z,15.86
2018-07-10T06:02:04.348Z,16.05
2018-07-10T06:03:04.343Z,16.04
2018-07-10T06:04:04.339Z,16.05
2018-07-10T06:05:04.333Z,16.15
2018-07-10T06:06:04.327Z,16.16
2018-07-10T06:07:04.322Z,16.28
2018-07-10T06:08:04.317Z,16.28
2018-07-10T06:09:04.313Z,16.12
2018-07-10T06:10:04.308Z,16.10
2018-07-10T06:12:04.303Z,16.16
2018-07-10T06:13:04.299Z,16.26
2018-07-10T06:14:04.346Z,16.31
2018-07-10T06:15:04.285Z,16.29
2018-07-10T06:16:04.285Z,16.43
2018-07-10T06:17:04.276Z,16.43
2018-07-10T06:18:04.272Z,16.43
2018-07-10T06:19:04.267Z,16.56
2018-07-10T06:20:04.262Z,16.66
2018-07-10T06:21:04.259Z,16.64
2018-07-10T06:22:04.254Z,16.68
2018-07-10T06:23:04.256Z,16.71
2018-07-10T06:24:04.246Z,16.89
2018-07-10T06:25:04.243Z,16.86
2018-07-10T06:26:04.241Z,16.76
2018-07-10T06:27:04.240Z,16.71
2018-07-10T06:28:04.229Z,16.58
2018-07-10T06:29:04.225Z,16.61
2018-07-10T06:30:04.222Z,16.66
2018-07-10T06:31:04.224Z,16.87
2018-07-10T06:32:04.213Z,16.96
2018-07-10T06:33:04.217Z,16.99
2018-07-10T06:34:04.206Z,16.84
2018-07-10T06:35:04.204Z,16.75
2018-07-10T06:36:04.406Z,16.75
2018-07-10T06:37:04.197Z,16.74
2018-07-10T06:38:04.191Z,16.89
2018-07-10T06:39:04.188Z,16.72
2018-07-10T06:40:04.184Z,16.72
2018-07-10T06:41:04.180Z,16.60
2018-07-10T06:42:04.380Z,16.64
2018-07-10T06:43:04.174Z,16.60
2018-07-10T06:44:04.168Z,16.66
2018-07-10T06:45:04.170Z,16.68
2018-07-10T06:46:04.161Z,16.71
2018-07-10T06:47:04.164Z,16.65
2018-07-10T06:48:04.153Z,16.72
2018-07-10T06:49:04.149Z,16.94
2018-07-10T06:50:04.149Z,16.93
2018-07-10T06:51:04.142Z,16.93
2018-07-10T06:52:04.138Z,16.94
2018-07-10T06:53:04.315Z,16.96
2018-07-10T06:54:04.132Z,16.87
2018-07-10T06:55:04.128Z,16.91
2018-07-10T06:56:04.126Z,17.02
2018-07-10T06:57:04.125Z,17.02
2018-07-10T06:58:04.319Z,16.91
2018-07-10T06:59:04.113Z,16.93
2018-07-10T07:00:04.109Z,17.01
2018-07-10T07:01:04.105Z,17.11
2018-07-10T07:02:04.102Z,17.12
2018-07-10T07:03:04.102Z,17.08
2018-07-10T07:04:04.101Z,17.14
2018-07-10T07:05:04.092Z,17.22
2018-07-10T07:06:04.089Z,17.27
2018-07-10T07:07:04.086Z,17.33
2018-07-10T07:08:04.125Z,17.33
2018-07-10T07:09:04.080Z,17.39
2018-07-10T07:10:04.079Z,17.36
2018-07-10T07:11:04.074Z,17.39
2018-07-10T07:12:04.071Z,17.41
2018-07-10T07:13:04.067Z,17.41
2018-07-10T07:14:04.064Z,17.51
2018-07-10T07:15:04.062Z,17.49
2018-07-10T07:16:04.060Z,17.52
2018-07-10T07:17:04.056Z,17.67
2018-07-10T07:18:04.053Z,17.78
2018-07-10T07:19:04.056Z,17.83
2018-07-10T07:20:04.049Z,17.83
2018-07-10T07:21:04.047Z,17.89
2018-07-10T07:22:04.048Z,18.00
2018-07-10T07:23:04.047Z,18.05
2018-07-10T07:24:04.040Z,18.10
2018-07-10T07:25:04.041Z,17.95
2018-07-10T07:26:04.038Z,17.87
2018-07-10T07:27:04.035Z,18.04
2018-07-10T07:28:04.035Z,18.07
2018-07-10T07:29:04.035Z,18.10
2018-07-10T07:30:04.034Z,18.15
2018-07-10T07:31:04.029Z,18.25
2018-07-10T07:32:04.027Z,18.40
2018-07-10T07:33:04.027Z,18.60
2018-07-10T07:34:04.029Z,18.84
2018-07-10T07:35:04.089Z,18.86
2018-07-10T07:36:04.029Z,18.78
2018-07-10T07:37:04.032Z,18.92
2018-07-10T07:38:04.027Z,19.19
2018-07-10T07:39:04.029Z,19.29
2018-07-10T07:40:04.029Z,19.29
2018-07-10T07:41:04.032Z,19.47
2018-07-10T07:42:04.035Z,19.63
2018-07-10T07:43:04.241Z,19.54
2018-07-10T07:44:04.163Z,19.45
2018-07-10T07:45:04.046Z,19.12
2018-07-10T07:46:04.049Z,19.14
2018-07-10T07:47:04.056Z,18.80
2018-07-10T07:48:04.056Z,18.47
2018-07-10T07:49:04.060Z,18.34
2018-07-10T07:50:04.061Z,18.25
2018-07-10T07:51:04.064Z,18.43
2018-07-10T07:52:04.065Z,18.56
2018-07-10T07:53:04.066Z,18.83
2018-07-10T07:54:04.069Z,18.99
2018-07-10T07:55:04.072Z,19.29
2018-07-10T07:56:04.074Z,19.44
2018-07-10T07:57:04.078Z,19.63
2018-07-10T07:58:04.085Z,19.85
2018-07-10T07:59:04.087Z,20.16
2018-07-10T08:00:04.091Z,20.34
2018-07-10T08:01:04.097Z,20.40
2018-07-10T08:02:04.100Z,20.34
2018-07-10T08:03:04.106Z,19.89
2018-07-10T08:04:04.110Z,19.45
2018-07-10T08:05:04.114Z,18.99
2018-07-10T08:06:04.124Z,18.74
2018-07-10T08:07:04.121Z,18.68
2018-07-10T08:08:04.124Z,18.88
2018-07-10T08:09:04.131Z,19.19
2018-07-10T08:10:04.138Z,19.63
2018-07-10T08:11:04.135Z,19.77
2018-07-10T08:12:04.139Z,19.95
2018-07-10T08:13:04.162Z,19.94
2018-07-10T08:14:04.148Z,19.91
2018-07-10T08:15:04.156Z,19.64
2018-07-10T08:16:04.160Z,19.48
2018-07-10T08:17:04.162Z,19.47
2018-07-10T08:18:04.165Z,19.29
2018-07-10T08:19:04.215Z,19.24
2018-07-10T08:20:04.165Z,19.26
2018-07-10T08:21:04.174Z,19.48
2018-07-10T08:22:04.170Z,19.76
2018-07-10T08:23:04.177Z,19.63
2018-07-10T08:24:04.176Z,19.51
2018-07-10T08:25:04.181Z,19.39
2018-07-10T08:26:04.186Z,19.52
2018-07-10T08:27:04.187Z,19.63
2018-07-10T08:28:04.190Z,19.95
2018-07-10T08:29:04.195Z,20.10
2018-07-10T08:30:04.204Z,20.44
2018-07-10T08:31:04.206Z,20.85
2018-07-10T08:32:04.211Z,21.05
2018-07-10T08:33:04.217Z,21.24
2018-07-10T08:34:04.518Z,21.45
2018-07-10T08:35:04.232Z,21.69
2018-07-10T08:36:04.238Z,21.60
2018-07-10T08:37:04.255Z,21.42
2018-07-10T08:38:04.253Z,21.18
2018-07-10T08:39:04.259Z,21.09
2018-07-10T08:40:04.268Z,20.82
2018-07-10T08:41:04.271Z,20.62
2018-07-10T08:42:04.278Z,20.29
2018-07-10T08:43:04.314Z,19.76
2018-07-10T08:44:04.287Z,19.69
2018-07-10T08:45:04.289Z,19.58
2018-07-10T08:46:04.292Z,19.31
2018-07-10T08:47:04.295Z,19.24
2018-07-10T08:48:04.297Z,19.44
2018-07-10T08:49:04.299Z,19.66
2018-07-10T08:50:04.303Z,19.73
2018-07-10T08:51:04.305Z,20.03
2018-07-10T08:52:04.308Z,20.36
2018-07-10T08:53:04.310Z,20.72
2018-07-10T08:54:04.317Z,20.74
2018-07-10T08:55:04.318Z,20.87
2018-07-10T08:56:04.321Z,20.63
2018-07-10T08:57:04.326Z,20.62
2018-07-10T08:58:04.328Z,20.77
2018-07-10T08:59:04.333Z,20.74
2018-07-10T09:00:04.336Z,20.82
2018-07-10T09:01:04.339Z,20.34
2018-07-10T09:02:04.342Z,20.04
2018-07-10T09:03:04.346Z,19.96
2018-07-10T09:04:04.350Z,20.10
2018-07-10T09:05:04.351Z,20.16
2018-07-10T09:06:04.353Z,20.21
2018-07-10T09:07:04.356Z,20.03
2018-07-10T09:08:04.439Z,19.92
2018-07-10T09:09:04.363Z,20.22
2018-07-10T09:10:04.364Z,20.56
2018-07-10T09:11:04.373Z,20.60
2018-07-10T09:12:04.372Z,20.74
2018-07-10T09:13:04.374Z,20.65
2018-07-10T09:14:04.382Z,20.78
2018-07-10T09:15:04.382Z,20.75
2018-07-10T09:16:04.384Z,20.44
2018-07-10T09:17:04.390Z,19.88
2018-07-10T09:18:04.391Z,19.49
2018-07-10T09:19:04.392Z,19.29
2018-07-10T09:20:04.398Z,19.29
2018-07-10T09:21:04.395Z,19.41
2018-07-10T09:22:04.397Z,19.48
2018-07-10T09:23:04.405Z,19.40
2018-07-10T09:24:04.401Z,19.56
2018-07-10T09:25:04.400Z,20.00
2018-07-10T09:26:04.402Z,20.25
2018-07-10T09:27:04.409Z,20.55
2018-07-10T09:28:04.407Z,20.72
2018-07-10T09:29:04.413Z,20.65
2018-07-10T09:30:04.419Z,20.28
2018-07-10T09:31:04.421Z,20.18
2018-07-10T09:32:04.427Z,19.99
2018-07-10T09:33:04.426Z,20.02
2018-07-10T09:34:04.430Z,20.03
2018-07-10T09:35:04.433Z,20.26
2018-07-10T09:36:04.441Z,20.56
2018-07-10T09:37:04.439Z,20.43
2018-07-10T09:38:04.485Z,20.22
2018-07-10T09:39:04.446Z,20.26
2018-07-10T09:40:04.448Z,20.34
2018-07-10T09:41:04.451Z,20.16
2018-07-10T09:42:04.460Z,19.79
2018-07-10T09:43:04.456Z,19.76
2018-07-10T09:44:04.583Z,19.76
2018-07-10T09:45:04.461Z,19.91
2018-07-10T09:46:04.465Z,20.28
2018-07-10T09:47:04.551Z,20.28
2018-07-10T09:48:04.469Z,20.36
2018-07-10T09:49:04.471Z,20.48
2018-07-10T09:50:04.475Z,20.52
2018-07-10T09:51:04.483Z,20.69
2018-07-10T09:52:04.478Z,20.66
2018-07-10T09:53:04.482Z,20.39
2018-07-10T09:54:04.485Z,20.21
2018-07-10T09:55:04.565Z,19.99
2018-07-10T09:56:04.486Z,20.02
2018-07-10T09:57:04.491Z,19.99
2018-07-10T09:58:04.491Z,19.70
2018-07-10T09:59:04.491Z,19.51
2018-07-10T10:00:04.490Z,19.39
2018-07-10T10:01:04.490Z,19.12
2018-07-10T10:02:04.490Z,19.12
2018-07-10T10:03:04.490Z,18.89
2018-07-10T10:04:04.489Z,18.89
2018-07-10T10:05:04.488Z,18.96
2018-07-10T10:06:04.488Z,18.83
2018-07-10T10:07:04.491Z,18.73
2018-07-10T10:08:04.485Z,18.83
2018-07-10T10:09:04.487Z,18.75
2018-07-10T10:10:04.486Z,18.71
2018-07-10T10:11:04.482Z,18.74
2018-07-10T10:12:04.484Z,18.83
2018-07-10T10:13:04.482Z,18.95
2018-07-10T10:14:04.477Z,19.21
2018-07-10T10:15:04.477Z,19.31
2018-07-10T10:16:04.474Z,19.48
2018-07-10T10:17:04.475Z,19.45
2018-07-10T10:18:04.475Z,19.52
2018-07-10T10:19:04.470Z,19.67
2018-07-10T10:20:04.468Z,19.66
2018-07-10T10:21:04.467Z,19.58
2018-07-10T10:22:04.470Z,19.48
2018-07-10T10:23:04.465Z,19.24
2018-07-10T10:24:04.463Z,19.31
2018-07-10T10:25:04.465Z,19.29
2018-07-10T10:26:04.462Z,19.27
2018-07-10T10:27:04.460Z,19.26
2018-07-10T10:28:04.458Z,19.21
2018-07-10T10:29:04.462Z,19.19
2018-07-10T10:30:04.455Z,19.12
2018-07-10T10:31:04.452Z,18.93
2018-07-10T10:32:04.451Z,18.93
2018-07-10T10:33:04.448Z,18.80
2018-07-10T10:34:04.450Z,18.81
2018-07-10T10:35:04.445Z,18.53
2018-07-10T10:36:04.442Z,18.43
2018-07-10T10:37:04.442Z,18.41
2018-07-10T10:38:04.440Z,18.47
2018-07-10T10:39:04.436Z,18.50
2018-07-10T10:40:04.437Z,18.38
2018-07-10T10:41:04.430Z,18.44
2018-07-10T10:42:04.429Z,18.45
2018-07-10T10:43:04.425Z,18.53
2018-07-10T10:44:04.425Z,18.66
2018-07-10T10:45:04.423Z,18.77
2018-07-10T10:46:04.418Z,18.86
2018-07-10T10:47:04.416Z,18.98
2018-07-10T10:48:04.412Z,19.12
2018-07-10T10:49:04.410Z,19.11
2018-07-10T10:50:04.408Z,19.08
2018-07-10T10:51:04.609Z,18.90
2018-07-10T10:52:04.404Z,18.84
2018-07-10T10:53:04.401Z,18.53
2018-07-10T10:54:04.399Z,18.44
2018-07-10T10:55:04.448Z,18.38
2018-07-10T10:56:04.393Z,18.37
2018-07-10T10:57:04.393Z,18.47
2018-07-10T10:58:04.391Z,18.43
2018-07-10T10:59:04.385Z,18.37
2018-07-10T11:00:04.381Z,18.34
2018-07-10T11:01:04.381Z,18.41
2018-07-10T11:02:04.376Z,18.38
2018-07-10T11:03:04.376Z,18.31
2018-07-10T11:04:04.370Z,18.37
2018-07-10T11:05:04.367Z,18.40
2018-07-10T11:06:04.369Z,18.25
2018-07-10T11:07:04.362Z,18.26
2018-07-10T11:08:04.357Z,18.34
2018-07-10T11:09:04.357Z,18.19
2018-07-10T11:10:04.353Z,18.23
2018-07-10T11:11:04.352Z,18.08
2018-07-10T11:12:04.346Z,18.05
2018-07-10T11:13:04.407Z,18.00
2018-07-10T11:14:04.340Z,18.18
2018-07-10T11:15:04.337Z,18.25
2018-07-10T11:16:04.336Z,18.22
2018-07-10T11:17:04.334Z,18.22
2018-07-10T11:18:04.329Z,18.22
2018-07-10T11:19:04.323Z,18.28
2018-07-10T11:20:04.319Z,18.29
2018-07-10T11:21:04.317Z,18.13
2018-07-10T11:22:04.312Z,18.05
2018-07-10T11:23:04.311Z,18.01
2018-07-10T11:24:04.307Z,18.11
2018-07-10T11:25:04.302Z,18.04
2018-07-10T11:26:04.302Z,17.86
2018-07-10T11:27:04.296Z,17.83
2018-07-10T11:28:04.296Z,17.85
2018-07-10T11:29:04.493Z,17.87
2018-07-10T11:30:04.285Z,17.94
2018-07-10T11:31:04.281Z,18.05
2018-07-10T11:32:04.276Z,17.97
2018-07-10T11:33:04.274Z,18.05
2018-07-10T11:34:04.270Z,18.11
2018-07-10T11:35:04.269Z,18.19
2018-07-10T11:36:04.263Z,18.23
2018-07-10T11:37:04.261Z,18.25
2018-07-10T11:38:04.257Z,18.29
2018-07-10T11:39:04.326Z,18.41
2018-07-10T11:40:04.251Z,18.28
2018-07-10T11:41:04.247Z,18.22
2018-07-10T11:42:04.244Z,18.31
2018-07-10T11:43:04.245Z,18.33
2018-07-10T11:44:04.236Z,18.40
2018-07-10T11:45:04.235Z,18.44
2018-07-10T11:46:04.233Z,18.47
2018-07-10T11:47:04.228Z,18.53
2018-07-10T11:48:04.224Z,18.60
2018-07-10T11:49:04.221Z,18.58
2018-07-10T11:50:04.225Z,18.60
2018-07-10T11:51:04.216Z,18.52
2018-07-10T11:52:04.213Z,18.40
2018-07-10T11:53:04.209Z,18.29
2018-07-10T11:54:04.211Z,18.19
2018-07-10T11:55:04.204Z,18.23
2018-07-10T11:56:04.201Z,18.19
2018-07-10T11:57:04.202Z,18.22
2018-07-10T11:58:04.199Z,18.26
2018-07-10T11:59:04.198Z,18.34
2018-07-10T12:00:04.191Z,18.40
2018-07-10T12:01:04.187Z,18.47
2018-07-10T12:02:04.191Z,18.40
2018-07-10T12:03:04.185Z,18.62
2018-07-10T12:04:04.188Z,18.58
2018-07-10T12:05:04.182Z,18.49
2018-07-10T12:06:04.175Z,18.49
2018-07-10T12:07:04.173Z,18.25
2018-07-10T12:08:04.170Z,18.25
2018-07-10T12:09:04.169Z,18.08
2018-07-10T12:10:04.165Z,18.15
2018-07-10T12:11:04.162Z,18.13
2018-07-10T12:12:04.361Z,18.13
2018-07-10T12:13:04.156Z,17.97
2018-07-10T12:14:04.154Z,17.85
2018-07-10T12:15:04.151Z,17.76
2018-07-10T12:16:04.147Z,17.76
2018-07-10T12:17:04.148Z,17.86
2018-07-10T12:18:04.146Z,17.80
2018-07-10T12:19:04.140Z,17.90
2018-07-10T12:20:04.134Z,17.89
2018-07-10T12:21:04.131Z,17.98
2018-07-10T12:22:04.127Z,17.89
2018-07-10T12:23:04.129Z,17.90
2018-07-10T12:24:04.121Z,17.89
2018-07-10T12:25:04.122Z,17.80
2018-07-10T12:26:04.120Z,17.80
2018-07-10T12:27:04.115Z,17.79
2018-07-10T12:28:04.208Z,17.79
2018-07-10T12:29:04.111Z,17.78
2018-07-10T12:30:04.106Z,17.89
2018-07-10T12:31:04.100Z,17.89
2018-07-10T12:32:04.093Z,17.94
2018-07-10T12:33:04.297Z,18.03
2018-07-10T12:34:04.087Z,17.97
2018-07-10T12:35:04.089Z,17.90
2018-07-10T12:36:04.080Z,17.89
2018-07-10T12:37:04.080Z,17.94
2018-07-10T12:38:04.277Z,18.08
2018-07-10T12:39:04.070Z,17.98
2018-07-10T12:40:04.067Z,18.04
2018-07-10T12:41:04.063Z,18.00
2018-07-10T12:42:04.063Z,18.00
2018-07-10T12:43:04.057Z,18.03
2018-07-10T12:44:04.053Z,18.11
2018-07-10T12:45:04.052Z,18.10
2018-07-10T12:46:04.047Z,18.04
2018-07-10T12:47:04.043Z,18.13
2018-07-10T12:48:04.040Z,18.13
2018-07-10T12:49:04.036Z,18.01
2018-07-10T12:50:04.239Z,18.01
2018-07-10T12:51:04.035Z,18.03
2018-07-10T12:52:04.031Z,17.83
2018-07-10T12:53:04.023Z,17.79
2018-07-10T12:54:04.020Z,17.76
2018-07-10T12:55:04.025Z,17.70